sensor_id;sensor_type;location;lat;lon;timestamp;temperature;humidity
45012;DHT22;63444;48.148;11.542;2024-02-26T00:01:39;5.70;99.90
45012;DHT22;63444;48.148;11.542;2024-02-26T00:04:05;5.70;99.90
45012;DHT22;63444;48.148;11.542;2024-02-26T00:06:31;5.70;99.90
45012;DHT22;63444;48.148;11.542;2024-02-26T00:08:56;5.70;99.90
45012;DHT22;63444;48.148;11.542;2024-02-26T00:11:22;5.70;99.90
45012;DHT22;63444;48.148;11.542;2024-02-26T00:13:48;5.70;99.90
45012;DHT22;63444;48.148;11.542;2024-02-26T00:16:13;5.80;99.90
45012;DHT22;63444;48.148;11.542;2024-02-26T00:18:39;5.70;99.90
45012;DHT22;63444;48.148;11.542;2024-02-26T00:21:05;5.70;99.90
45012;DHT22;63444;48.148;11.542;2024-02-26T00:23:30;5.70;99.90
45012;DHT22;63444;48.148;11.542;2024-02-26T00:25:56;5.80;99.90
45012;DHT22;63444;48.148;11.542;2024-02-26T00:28:22;5.80;99.90
45012;DHT22;63444;48.148;11.542;2024-02-26T00:30:47;5.80;99.90
45012;DHT22;63444;48.148;11.542;2024-02-26T00:33:16;5.80;99.90
45012;DHT22;63444;48.148;11.542;2024-02-26T00:35:42;5.80;99.90
45012;DHT22;63444;48.148;11.542;2024-02-26T00:38:08;5.80;99.90
45012;DHT22;63444;48.148;11.542;2024-02-26T00:40:34;5.80;99.90
45012;DHT22;63444;48.148;11.542;2024-02-26T00:42:59;5.90;99.90
45012;DHT22;63444;48.148;11.542;2024-02-26T00:45:25;5.80;99.90
45012;DHT22;63444;48.148;11.542;2024-02-26T00:47:51;5.80;99.90
45012;DHT22;63444;48.148;11.542;2024-02-26T00:50:16;5.80;99.90
45012;DHT22;63444;48.148;11.542;2024-02-26T00:52:42;5.80;99.90
45012;DHT22;63444;48.148;11.542;2024-02-26T00:55:08;5.90;99.90
45012;DHT22;63444;48.148;11.542;2024-02-26T00:57:34;5.80;99.90
45012;DHT22;63444;48.148;11.542;2024-02-26T00:59:59;5.80;99.90
45012;DHT22;63444;48.148;11.542;2024-02-26T01:02:26;5.80;99.90
45012;DHT22;63444;48.148;11.542;2024-02-26T01:04:52;5.80;99.90
45012;DHT22;63444;48.148;11.542;2024-02-26T01:07:18;5.80;99.90
45012;DHT22;63444;48.148;11.542;2024-02-26T01:09:44;5.70;99.90
45012;DHT22;63444;48.148;11.542;2024-02-26T01:12:10;5.80;99.90
45012;DHT22;63444;48.148;11.542;2024-02-26T01:14:35;5.80;99.90
45012;DHT22;63444;48.148;11.542;2024-02-26T01:17:01;5.70;99.90
45012;DHT22;63444;48.148;11.542;2024-02-26T01:19:27;5.80;99.90
45012;DHT22;63444;48.148;11.542;2024-02-26T01:21:53;5.80;99.90
45012;DHT22;63444;48.148;11.542;2024-02-26T01:24:18;5.80;99.90
45012;DHT22;63444;48.148;11.542;2024-02-26T01:26:44;5.70;99.90
45012;DHT22;63444;48.148;11.542;2024-02-26T01:29:09;5.80;99.90
45012;DHT22;63444;48.148;11.542;2024-02-26T01:31:35;5.60;99.90
45012;DHT22;63444;48.148;11.542;2024-02-26T01:34:01;5.50;99.90
45012;DHT22;63444;48.148;11.542;2024-02-26T01:36:27;5.60;99.90
45012;DHT22;63444;48.148;11.542;2024-02-26T01:38:52;5.60;99.90
45012;DHT22;63444;48.148;11.542;2024-02-26T01:41:18;5.60;99.90
45012;DHT22;63444;48.148;11.542;2024-02-26T01:43:44;5.60;99.90
45012;DHT22;63444;48.148;11.542;2024-02-26T01:46:13;5.60;99.90
45012;DHT22;63444;48.148;11.542;2024-02-26T01:48:41;5.70;99.90
45012;DHT22;63444;48.148;11.542;2024-02-26T01:51:07;5.50;99.90
45012;DHT22;63444;48.148;11.542;2024-02-26T01:53:33;5.30;99.90
45012;DHT22;63444;48.148;11.542;2024-02-26T01:56:00;5.40;99.90
45012;DHT22;63444;48.148;11.542;2024-02-26T01:58:26;5.40;99.90
45012;DHT22;63444;48.148;11.542;2024-02-26T02:00:51;5.40;99.90
45012;DHT22;63444;48.148;11.542;2024-02-26T02:03:17;5.40;99.90
45012;DHT22;63444;48.148;11.542;2024-02-26T02:05:43;5.40;99.90
45012;DHT22;63444;48.148;11.542;2024-02-26T02:08:10;5.40;99.90
45012;DHT22;63444;48.148;11.542;2024-02-26T02:10:41;5.40;99.90
45012;DHT22;63444;48.148;11.542;2024-02-26T02:13:07;5.40;99.90
45012;DHT22;63444;48.148;11.542;2024-02-26T02:15:33;5.30;99.90
45012;DHT22;63444;48.148;11.542;2024-02-26T02:17:59;5.30;99.90
45012;DHT22;63444;48.148;11.542;2024-02-26T02:20:31;5.30;99.90
45012;DHT22;63444;48.148;11.542;2024-02-26T02:22:57;5.30;99.90
45012;DHT22;63444;48.148;11.542;2024-02-26T02:25:22;5.30;99.90
45012;DHT22;63444;48.148;11.542;2024-02-26T02:27:48;5.30;99.90
45012;DHT22;63444;48.148;11.542;2024-02-26T02:30:14;5.30;99.90
45012;DHT22;63444;48.148;11.542;2024-02-26T02:32:41;5.30;99.90
45012;DHT22;63444;48.148;11.542;2024-02-26T02:35:07;5.30;99.90
45012;DHT22;63444;48.148;11.542;2024-02-26T02:37:33;5.20;99.90
45012;DHT22;63444;48.148;11.542;2024-02-26T02:39:59;5.20;99.90
45012;DHT22;63444;48.148;11.542;2024-02-26T02:42:25;5.20;99.90
45012;DHT22;63444;48.148;11.542;2024-02-26T02:44:51;5.30;99.90
45012;DHT22;63444;48.148;11.542;2024-02-26T02:47:17;5.20;99.90
45012;DHT22;63444;48.148;11.542;2024-02-26T02:49:42;5.20;99.90
45012;DHT22;63444;48.148;11.542;2024-02-26T02:52:08;5.20;99.90
45012;DHT22;63444;48.148;11.542;2024-02-26T02:54:33;5.30;99.90
45012;DHT22;63444;48.148;11.542;2024-02-26T02:56:59;5.20;99.90
45012;DHT22;63444;48.148;11.542;2024-02-26T02:59:25;5.10;99.90
45012;DHT22;63444;48.148;11.542;2024-02-26T03:01:51;5.10;99.90
45012;DHT22;63444;48.148;11.542;2024-02-26T03:04:17;5.10;99.90
45012;DHT22;63444;48.148;11.542;2024-02-26T03:06:43;5.10;99.90
45012;DHT22;63444;48.148;11.542;2024-02-26T03:09:08;5.00;99.90
45012;DHT22;63444;48.148;11.542;2024-02-26T03:11:34;5.10;99.90
45012;DHT22;63444;48.148;11.542;2024-02-26T03:14:00;5.00;99.90
45012;DHT22;63444;48.148;11.542;2024-02-26T03:16:26;5.00;99.90
45012;DHT22;63444;48.148;11.542;2024-02-26T03:18:51;5.00;99.90
45012;DHT22;63444;48.148;11.542;2024-02-26T03:21:18;5.00;99.90
45012;DHT22;63444;48.148;11.542;2024-02-26T03:23:43;5.00;99.90
45012;DHT22;63444;48.148;11.542;2024-02-26T03:26:09;5.10;99.90
45012;DHT22;63444;48.148;11.542;2024-02-26T03:28:39;5.00;99.90
45012;DHT22;63444;48.148;11.542;2024-02-26T03:31:04;5.10;99.90
45012;DHT22;63444;48.148;11.542;2024-02-26T03:33:30;5.10;99.90
45012;DHT22;63444;48.148;11.542;2024-02-26T03:35:56;5.20;99.90
45012;DHT22;63444;48.148;11.542;2024-02-26T03:38:21;5.10;99.90
45012;DHT22;63444;48.148;11.542;2024-02-26T03:40:47;5.20;99.90
45012;DHT22;63444;48.148;11.542;2024-02-26T03:43:13;5.20;99.90
45012;DHT22;63444;48.148;11.542;2024-02-26T03:45:39;5.30;99.90
45012;DHT22;63444;48.148;11.542;2024-02-26T03:48:05;5.30;99.90
45012;DHT22;63444;48.148;11.542;2024-02-26T03:50:31;5.30;99.90
45012;DHT22;63444;48.148;11.542;2024-02-26T03:52:56;5.20;99.90
45012;DHT22;63444;48.148;11.542;2024-02-26T03:55:23;5.30;99.90
45012;DHT22;63444;48.148;11.542;2024-02-26T03:57:51;5.20;99.90
45012;DHT22;63444;48.148;11.542;2024-02-26T04:00:17;5.20;99.90
45012;DHT22;63444;48.148;11.542;2024-02-26T04:02:43;5.20;99.90
45012;DHT22;63444;48.148;11.542;2024-02-26T04:05:12;5.30;99.90
45012;DHT22;63444;48.148;11.542;2024-02-26T04:07:39;5.10;99.90
45012;DHT22;63444;48.148;11.542;2024-02-26T04:10:11;5.20;99.90
45012;DHT22;63444;48.148;11.542;2024-02-26T04:12:41;5.20;99.90
45012;DHT22;63444;48.148;11.542;2024-02-26T04:15:08;5.20;99.90
45012;DHT22;63444;48.148;11.542;2024-02-26T04:17:34;5.20;99.90
45012;DHT22;63444;48.148;11.542;2024-02-26T04:20:00;5.10;99.90
45012;DHT22;63444;48.148;11.542;2024-02-26T04:22:26;5.20;99.90
45012;DHT22;63444;48.148;11.542;2024-02-26T04:24:51;5.20;99.90
45012;DHT22;63444;48.148;11.542;2024-02-26T04:27:17;5.30;99.90
45012;DHT22;63444;48.148;11.542;2024-02-26T04:29:43;5.20;99.90
45012;DHT22;63444;48.148;11.542;2024-02-26T04:32:08;5.30;99.90
45012;DHT22;63444;48.148;11.542;2024-02-26T04:34:34;5.20;99.90
45012;DHT22;63444;48.148;11.542;2024-02-26T04:36:59;5.30;99.90
45012;DHT22;63444;48.148;11.542;2024-02-26T04:39:25;5.30;99.90
45012;DHT22;63444;48.148;11.542;2024-02-26T04:41:51;5.30;99.90
45012;DHT22;63444;48.148;11.542;2024-02-26T04:44:17;5.20;99.90
45012;DHT22;63444;48.148;11.542;2024-02-26T04:46:42;5.30;99.90
45012;DHT22;63444;48.148;11.542;2024-02-26T04:49:09;5.10;99.90
45012;DHT22;63444;48.148;11.542;2024-02-26T04:51:34;5.20;99.90
45012;DHT22;63444;48.148;11.542;2024-02-26T04:54:00;5.20;99.90
45012;DHT22;63444;48.148;11.542;2024-02-26T04:56:25;5.10;99.90
45012;DHT22;63444;48.148;11.542;2024-02-26T04:58:51;4.90;99.90
45012;DHT22;63444;48.148;11.542;2024-02-26T05:01:17;5.00;99.90
45012;DHT22;63444;48.148;11.542;2024-02-26T05:03:44;5.10;99.90
45012;DHT22;63444;48.148;11.542;2024-02-26T05:06:10;5.00;99.90
45012;DHT22;63444;48.148;11.542;2024-02-26T05:08:35;5.00;99.90
45012;DHT22;63444;48.148;11.542;2024-02-26T05:11:04;5.10;99.90
45012;DHT22;63444;48.148;11.542;2024-02-26T05:13:31;5.10;99.90
45012;DHT22;63444;48.148;11.542;2024-02-26T05:15:56;5.10;99.90
45012;DHT22;63444;48.148;11.542;2024-02-26T05:18:22;5.20;99.90
45012;DHT22;63444;48.148;11.542;2024-02-26T05:20:48;5.20;99.90
45012;DHT22;63444;48.148;11.542;2024-02-26T05:23:13;5.20;99.90
45012;DHT22;63444;48.148;11.542;2024-02-26T05:25:39;5.20;99.90
45012;DHT22;63444;48.148;11.542;2024-02-26T05:28:05;5.30;99.90
45012;DHT22;63444;48.148;11.542;2024-02-26T05:30:31;5.40;99.90
45012;DHT22;63444;48.148;11.542;2024-02-26T05:32:56;5.30;99.90
45012;DHT22;63444;48.148;11.542;2024-02-26T05:35:22;5.30;99.90
45012;DHT22;63444;48.148;11.542;2024-02-26T05:37:48;5.30;99.90
45012;DHT22;63444;48.148;11.542;2024-02-26T05:40:13;5.30;99.90
45012;DHT22;63444;48.148;11.542;2024-02-26T05:42:39;5.20;99.90
45012;DHT22;63444;48.148;11.542;2024-02-26T05:45:05;5.30;99.90
45012;DHT22;63444;48.148;11.542;2024-02-26T05:47:35;5.20;99.90
45012;DHT22;63444;48.148;11.542;2024-02-26T05:50:01;5.30;99.90
45012;DHT22;63444;48.148;11.542;2024-02-26T05:52:27;5.30;99.90
45012;DHT22;63444;48.148;11.542;2024-02-26T05:54:54;5.30;99.90
45012;DHT22;63444;48.148;11.542;2024-02-26T05:57:20;5.30;99.90
45012;DHT22;63444;48.148;11.542;2024-02-26T05:59:46;5.30;99.90
45012;DHT22;63444;48.148;11.542;2024-02-26T06:02:11;5.40;99.90
45012;DHT22;63444;48.148;11.542;2024-02-26T06:04:37;5.40;99.90
45012;DHT22;63444;48.148;11.542;2024-02-26T06:07:02;5.40;99.90
45012;DHT22;63444;48.148;11.542;2024-02-26T06:09:28;5.30;99.90
45012;DHT22;63444;48.148;11.542;2024-02-26T06:11:54;5.40;99.90
45012;DHT22;63444;48.148;11.542;2024-02-26T06:14:20;5.40;99.90
45012;DHT22;63444;48.148;11.542;2024-02-26T06:16:46;5.30;99.90
45012;DHT22;63444;48.148;11.542;2024-02-26T06:19:12;5.50;99.90
45012;DHT22;63444;48.148;11.542;2024-02-26T06:21:37;5.50;99.90
45012;DHT22;63444;48.148;11.542;2024-02-26T06:24:03;5.40;99.90
45012;DHT22;63444;48.148;11.542;2024-02-26T06:26:29;5.50;99.90
45012;DHT22;63444;48.148;11.542;2024-02-26T06:28:55;5.50;99.90
45012;DHT22;63444;48.148;11.542;2024-02-26T06:31:24;5.60;99.90
45012;DHT22;63444;48.148;11.542;2024-02-26T06:33:50;5.60;99.90
45012;DHT22;63444;48.148;11.542;2024-02-26T06:36:16;5.70;99.90
45012;DHT22;63444;48.148;11.542;2024-02-26T06:38:41;5.70;99.90
45012;DHT22;63444;48.148;11.542;2024-02-26T06:41:07;5.70;99.90
45012;DHT22;63444;48.148;11.542;2024-02-26T06:43:33;5.80;99.90
45012;DHT22;63444;48.148;11.542;2024-02-26T06:45:58;5.90;99.90
45012;DHT22;63444;48.148;11.542;2024-02-26T06:48:24;5.80;99.90
45012;DHT22;63444;48.148;11.542;2024-02-26T06:50:50;5.90;99.90
45012;DHT22;63444;48.148;11.542;2024-02-26T06:53:16;5.90;99.90
45012;DHT22;63444;48.148;11.542;2024-02-26T06:55:42;5.90;99.90
45012;DHT22;63444;48.148;11.542;2024-02-26T06:58:08;6.00;99.90
45012;DHT22;63444;48.148;11.542;2024-02-26T07:00:34;6.00;99.90
45012;DHT22;63444;48.148;11.542;2024-02-26T07:03:00;6.10;99.90
45012;DHT22;63444;48.148;11.542;2024-02-26T07:05:26;6.10;99.90
45012;DHT22;63444;48.148;11.542;2024-02-26T07:07:52;6.20;99.90
45012;DHT22;63444;48.148;11.542;2024-02-26T07:10:18;6.10;99.90
45012;DHT22;63444;48.148;11.542;2024-02-26T07:12:44;6.20;99.90
45012;DHT22;63444;48.148;11.542;2024-02-26T07:15:10;6.30;99.90
45012;DHT22;63444;48.148;11.542;2024-02-26T07:17:36;6.30;99.90
45012;DHT22;63444;48.148;11.542;2024-02-26T07:20:01;6.30;99.90
45012;DHT22;63444;48.148;11.542;2024-02-26T07:22:30;6.30;99.90
45012;DHT22;63444;48.148;11.542;2024-02-26T07:24:55;6.30;99.90
45012;DHT22;63444;48.148;11.542;2024-02-26T07:27:21;6.50;99.90
45012;DHT22;63444;48.148;11.542;2024-02-26T07:29:47;6.60;99.90
45012;DHT22;63444;48.148;11.542;2024-02-26T07:32:12;6.50;99.90
45012;DHT22;63444;48.148;11.542;2024-02-26T07:34:38;6.60;99.90
45012;DHT22;63444;48.148;11.542;2024-02-26T07:37:07;6.60;99.90
45012;DHT22;63444;48.148;11.542;2024-02-26T07:39:33;6.60;99.90
45012;DHT22;63444;48.148;11.542;2024-02-26T07:41:59;6.60;99.90
45012;DHT22;63444;48.148;11.542;2024-02-26T07:44:24;6.70;99.90
45012;DHT22;63444;48.148;11.542;2024-02-26T07:46:50;6.70;99.90
45012;DHT22;63444;48.148;11.542;2024-02-26T07:49:16;6.70;99.90
45012;DHT22;63444;48.148;11.542;2024-02-26T07:51:41;6.80;99.90
45012;DHT22;63444;48.148;11.542;2024-02-26T07:54:07;6.70;99.90
45012;DHT22;63444;48.148;11.542;2024-02-26T07:56:33;6.90;99.90
45012;DHT22;63444;48.148;11.542;2024-02-26T07:58:58;6.80;99.90
45012;DHT22;63444;48.148;11.542;2024-02-26T08:01:24;6.90;99.90
45012;DHT22;63444;48.148;11.542;2024-02-26T08:03:52;6.90;99.90
45012;DHT22;63444;48.148;11.542;2024-02-26T08:06:18;7.00;99.90
45012;DHT22;63444;48.148;11.542;2024-02-26T08:08:44;7.00;99.90
45012;DHT22;63444;48.148;11.542;2024-02-26T08:11:09;7.00;99.90
45012;DHT22;63444;48.148;11.542;2024-02-26T08:13:35;7.00;99.90
45012;DHT22;63444;48.148;11.542;2024-02-26T08:16:01;7.00;99.90
45012;DHT22;63444;48.148;11.542;2024-02-26T08:18:27;7.00;99.90
45012;DHT22;63444;48.148;11.542;2024-02-26T08:20:52;7.00;99.90
45012;DHT22;63444;48.148;11.542;2024-02-26T08:23:18;7.10;99.90
45012;DHT22;63444;48.148;11.542;2024-02-26T08:25:44;7.10;99.90
45012;DHT22;63444;48.148;11.542;2024-02-26T08:28:09;7.20;99.90
45012;DHT22;63444;48.148;11.542;2024-02-26T08:30:38;7.30;99.90
45012;DHT22;63444;48.148;11.542;2024-02-26T08:33:04;7.40;99.90
45012;DHT22;63444;48.148;11.542;2024-02-26T08:35:29;7.50;99.90
45012;DHT22;63444;48.148;11.542;2024-02-26T08:37:55;7.60;99.90
45012;DHT22;63444;48.148;11.542;2024-02-26T08:40:21;7.60;99.90
45012;DHT22;63444;48.148;11.542;2024-02-26T08:42:47;7.80;99.90
45012;DHT22;63444;48.148;11.542;2024-02-26T08:45:12;7.80;99.90
45012;DHT22;63444;48.148;11.542;2024-02-26T08:47:38;7.90;99.90
45012;DHT22;63444;48.148;11.542;2024-02-26T08:50:05;7.90;99.90
45012;DHT22;63444;48.148;11.542;2024-02-26T08:52:31;8.00;99.90
45012;DHT22;63444;48.148;11.542;2024-02-26T08:54:56;8.00;99.90
45012;DHT22;63444;48.148;11.542;2024-02-26T08:57:22;8.10;99.90
45012;DHT22;63444;48.148;11.542;2024-02-26T08:59:48;8.10;99.90
45012;DHT22;63444;48.148;11.542;2024-02-26T09:02:14;8.20;99.90
45012;DHT22;63444;48.148;11.542;2024-02-26T09:04:39;8.20;99.90
45012;DHT22;63444;48.148;11.542;2024-02-26T09:07:05;8.20;99.90
45012;DHT22;63444;48.148;11.542;2024-02-26T09:09:31;8.20;99.90
45012;DHT22;63444;48.148;11.542;2024-02-26T09:11:57;8.20;99.90
45012;DHT22;63444;48.148;11.542;2024-02-26T09:14:22;8.30;99.90
45012;DHT22;63444;48.148;11.542;2024-02-26T09:16:48;8.30;99.90
45012;DHT22;63444;48.148;11.542;2024-02-26T09:19:14;8.30;99.90
45012;DHT22;63444;48.148;11.542;2024-02-26T09:21:44;8.30;99.90
45012;DHT22;63444;48.148;11.542;2024-02-26T09:24:11;8.40;99.90
45012;DHT22;63444;48.148;11.542;2024-02-26T09:26:37;8.30;99.90
45012;DHT22;63444;48.148;11.542;2024-02-26T09:29:02;8.40;99.90
45012;DHT22;63444;48.148;11.542;2024-02-26T09:31:29;8.40;99.90
45012;DHT22;63444;48.148;11.542;2024-02-26T09:33:55;8.50;99.90
45012;DHT22;63444;48.148;11.542;2024-02-26T09:36:20;8.50;99.90
45012;DHT22;63444;48.148;11.542;2024-02-26T09:38:47;8.60;99.90
45012;DHT22;63444;48.148;11.542;2024-02-26T09:41:16;8.70;99.90
45012;DHT22;63444;48.148;11.542;2024-02-26T09:43:44;8.80;99.90
45012;DHT22;63444;48.148;11.542;2024-02-26T09:46:13;8.80;99.90
45012;DHT22;63444;48.148;11.542;2024-02-26T09:48:42;8.90;99.90
45012;DHT22;63444;48.148;11.542;2024-02-26T09:51:09;9.00;98.80
45012;DHT22;63444;48.148;11.542;2024-02-26T09:53:36;9.20;98.90
45012;DHT22;63444;48.148;11.542;2024-02-26T09:56:07;9.30;99.00
45012;DHT22;63444;48.148;11.542;2024-02-26T09:58:33;9.50;98.00
45012;DHT22;63444;48.148;11.542;2024-02-26T10:01:00;9.60;97.30
45012;DHT22;63444;48.148;11.542;2024-02-26T10:03:38;9.70;97.10
45012;DHT22;63444;48.148;11.542;2024-02-26T10:06:09;9.80;97.40
45012;DHT22;63444;48.148;11.542;2024-02-26T10:08:35;9.90;97.40
45012;DHT22;63444;48.148;11.542;2024-02-26T10:11:05;10.00;97.00
45012;DHT22;63444;48.148;11.542;2024-02-26T10:13:32;10.10;97.30
45012;DHT22;63444;48.148;11.542;2024-02-26T10:15:57;10.10;97.50
45012;DHT22;63444;48.148;11.542;2024-02-26T10:18:24;10.10;97.40
45012;DHT22;63444;48.148;11.542;2024-02-26T10:21:02;10.10;97.50
45012;DHT22;63444;48.148;11.542;2024-02-26T10:23:27;10.20;97.60
45012;DHT22;63444;48.148;11.542;2024-02-26T10:25:54;10.10;96.90
45012;DHT22;63444;48.148;11.542;2024-02-26T10:28:23;10.20;97.30
45012;DHT22;63444;48.148;11.542;2024-02-26T10:30:50;10.20;97.30
45012;DHT22;63444;48.148;11.542;2024-02-26T10:33:16;10.20;97.20
45012;DHT22;63444;48.148;11.542;2024-02-26T10:35:48;10.30;97.20
45012;DHT22;63444;48.148;11.542;2024-02-26T10:38:13;10.40;97.30
45012;DHT22;63444;48.148;11.542;2024-02-26T10:40:42;10.40;97.30
45012;DHT22;63444;48.148;11.542;2024-02-26T10:43:08;10.40;97.30
45012;DHT22;63444;48.148;11.542;2024-02-26T10:45:34;10.40;97.20
45012;DHT22;63444;48.148;11.542;2024-02-26T10:48:00;10.50;96.80
45012;DHT22;63444;48.148;11.542;2024-02-26T10:50:26;10.50;96.30
45012;DHT22;63444;48.148;11.542;2024-02-26T10:52:52;10.60;96.70
45012;DHT22;63444;48.148;11.542;2024-02-26T10:55:21;10.60;96.10
45012;DHT22;63444;48.148;11.542;2024-02-26T10:57:49;10.60;96.30
45012;DHT22;63444;48.148;11.542;2024-02-26T11:00:17;10.70;96.10
45012;DHT22;63444;48.148;11.542;2024-02-26T11:02:45;10.70;96.20
45012;DHT22;63444;48.148;11.542;2024-02-26T11:05:12;10.80;95.90
45012;DHT22;63444;48.148;11.542;2024-02-26T11:07:38;10.90;96.00
45012;DHT22;63444;48.148;11.542;2024-02-26T11:10:06;11.00;95.30
45012;DHT22;63444;48.148;11.542;2024-02-26T11:12:33;11.10;95.00
45012;DHT22;63444;48.148;11.542;2024-02-26T11:15:01;11.20;94.70
45012;DHT22;63444;48.148;11.542;2024-02-26T11:17:28;11.30;94.30
45012;DHT22;63444;48.148;11.542;2024-02-26T11:19:58;11.40;94.10
45012;DHT22;63444;48.148;11.542;2024-02-26T11:22:24;11.50;94.20
45012;DHT22;63444;48.148;11.542;2024-02-26T11:24:54;11.60;94.20
45012;DHT22;63444;48.148;11.542;2024-02-26T11:27:26;11.70;94.10
45012;DHT22;63444;48.148;11.542;2024-02-26T11:29:56;11.80;94.10
45012;DHT22;63444;48.148;11.542;2024-02-26T11:32:23;11.90;94.00
45012;DHT22;63444;48.148;11.542;2024-02-26T11:34:49;11.90;94.40
45012;DHT22;63444;48.148;11.542;2024-02-26T11:37:17;12.00;93.60
45012;DHT22;63444;48.148;11.542;2024-02-26T11:39:43;12.00;92.90
45012;DHT22;63444;48.148;11.542;2024-02-26T11:42:14;12.20;92.70
45012;DHT22;63444;48.148;11.542;2024-02-26T11:44:39;12.20;93.10
45012;DHT22;63444;48.148;11.542;2024-02-26T11:47:28;12.30;92.80
45012;DHT22;63444;48.148;11.542;2024-02-26T11:49:54;12.40;92.20
45012;DHT22;63444;48.148;11.542;2024-02-26T11:52:19;12.50;91.80
45012;DHT22;63444;48.148;11.542;2024-02-26T11:54:56;12.50;91.40
45012;DHT22;63444;48.148;11.542;2024-02-26T11:57:38;12.50;91.80
45012;DHT22;63444;48.148;11.542;2024-02-26T12:02:46;12.70;91.60
45012;DHT22;63444;48.148;11.542;2024-02-26T12:05:25;12.70;91.90
45012;DHT22;63444;48.148;11.542;2024-02-26T12:07:59;12.80;91.20
45012;DHT22;63444;48.148;11.542;2024-02-26T12:10:31;12.90;90.90
45012;DHT22;63444;48.148;11.542;2024-02-26T12:13:09;13.00;90.60
45012;DHT22;63444;48.148;11.542;2024-02-26T12:15:59;13.10;90.60
45012;DHT22;63444;48.148;11.542;2024-02-26T12:18:24;13.20;90.40
45012;DHT22;63444;48.148;11.542;2024-02-26T12:21:00;13.30;91.20
45012;DHT22;63444;48.148;11.542;2024-02-26T12:23:26;13.30;89.80
45012;DHT22;63444;48.148;11.542;2024-02-26T12:25:53;13.30;90.30
45012;DHT22;63444;48.148;11.542;2024-02-26T12:28:19;13.20;90.70
45012;DHT22;63444;48.148;11.542;2024-02-26T12:30:45;13.30;91.00
45012;DHT22;63444;48.148;11.542;2024-02-26T12:33:11;13.30;89.70
45012;DHT22;63444;48.148;11.542;2024-02-26T12:35:37;13.20;90.10
45012;DHT22;63444;48.148;11.542;2024-02-26T12:38:03;13.20;88.70
45012;DHT22;63444;48.148;11.542;2024-02-26T12:40:29;13.20;89.30
45012;DHT22;63444;48.148;11.542;2024-02-26T12:42:55;13.20;87.90
45012;DHT22;63444;48.148;11.542;2024-02-26T12:45:21;13.20;87.80
45012;DHT22;63444;48.148;11.542;2024-02-26T12:47:47;13.30;87.80
45012;DHT22;63444;48.148;11.542;2024-02-26T12:50:13;13.30;88.10
45012;DHT22;63444;48.148;11.542;2024-02-26T12:52:43;13.30;88.20
45012;DHT22;63444;48.148;11.542;2024-02-26T12:55:14;13.20;87.30
45012;DHT22;63444;48.148;11.542;2024-02-26T12:57:40;13.20;87.70
45012;DHT22;63444;48.148;11.542;2024-02-26T13:00:12;13.20;89.10
45012;DHT22;63444;48.148;11.542;2024-02-26T13:02:38;13.10;90.00
45012;DHT22;63444;48.148;11.542;2024-02-26T13:05:06;13.20;90.70
45012;DHT22;63444;48.148;11.542;2024-02-26T13:07:33;13.20;91.10
45012;DHT22;63444;48.148;11.542;2024-02-26T13:10:00;13.30;91.10
45012;DHT22;63444;48.148;11.542;2024-02-26T13:12:26;13.30;90.20
45012;DHT22;63444;48.148;11.542;2024-02-26T13:15:02;13.40;91.00
45012;DHT22;63444;48.148;11.542;2024-02-26T13:17:31;13.40;90.50
45012;DHT22;63444;48.148;11.542;2024-02-26T13:19:57;13.40;88.50
45012;DHT22;63444;48.148;11.542;2024-02-26T13:22:22;13.30;88.20
45012;DHT22;63444;48.148;11.542;2024-02-26T13:24:59;13.30;90.00
45012;DHT22;63444;48.148;11.542;2024-02-26T13:27:25;13.30;90.50
45012;DHT22;63444;48.148;11.542;2024-02-26T13:30:11;13.20;90.30
45012;DHT22;63444;48.148;11.542;2024-02-26T13:32:39;13.20;89.90
45012;DHT22;63444;48.148;11.542;2024-02-26T13:35:10;13.20;90.10
45012;DHT22;63444;48.148;11.542;2024-02-26T13:37:37;13.20;90.40
45012;DHT22;63444;48.148;11.542;2024-02-26T13:40:11;13.10;89.90
45012;DHT22;63444;48.148;11.542;2024-02-26T13:42:39;13.10;90.20
45012;DHT22;63444;48.148;11.542;2024-02-26T13:45:06;13.10;87.30
45012;DHT22;63444;48.148;11.542;2024-02-26T13:47:33;13.00;86.80
45012;DHT22;63444;48.148;11.542;2024-02-26T13:49:59;13.00;85.20
45012;DHT22;63444;48.148;11.542;2024-02-26T13:52:26;12.90;83.40
45012;DHT22;63444;48.148;11.542;2024-02-26T13:54:51;12.90;85.60
45012;DHT22;63444;48.148;11.542;2024-02-26T13:57:18;12.90;85.20
45012;DHT22;63444;48.148;11.542;2024-02-26T13:59:44;12.90;83.40
45012;DHT22;63444;48.148;11.542;2024-02-26T14:02:10;12.80;83.70
45012;DHT22;63444;48.148;11.542;2024-02-26T14:04:37;12.80;84.10
45012;DHT22;63444;48.148;11.542;2024-02-26T14:07:03;12.80;84.60
45012;DHT22;63444;48.148;11.542;2024-02-26T14:09:29;12.80;85.10
45012;DHT22;63444;48.148;11.542;2024-02-26T14:11:54;12.80;84.70
45012;DHT22;63444;48.148;11.542;2024-02-26T14:14:20;12.80;83.40
45012;DHT22;63444;48.148;11.542;2024-02-26T14:16:46;12.80;83.20
45012;DHT22;63444;48.148;11.542;2024-02-26T14:19:11;12.80;83.40
45012;DHT22;63444;48.148;11.542;2024-02-26T14:21:37;12.80;84.00
45012;DHT22;63444;48.148;11.542;2024-02-26T14:24:03;12.80;84.70
45012;DHT22;63444;48.148;11.542;2024-02-26T14:26:29;12.80;85.30
45012;DHT22;63444;48.148;11.542;2024-02-26T14:28:54;12.70;86.30
45012;DHT22;63444;48.148;11.542;2024-02-26T14:31:21;12.70;87.40
45012;DHT22;63444;48.148;11.542;2024-02-26T14:33:47;12.70;88.50
45012;DHT22;63444;48.148;11.542;2024-02-26T14:36:13;12.70;89.20
45012;DHT22;63444;48.148;11.542;2024-02-26T14:38:39;12.70;90.20
45012;DHT22;63444;48.148;11.542;2024-02-26T14:41:05;12.60;90.70
45012;DHT22;63444;48.148;11.542;2024-02-26T14:43:31;12.60;90.60
45012;DHT22;63444;48.148;11.542;2024-02-26T14:46:00;12.60;91.40
45012;DHT22;63444;48.148;11.542;2024-02-26T14:48:26;12.50;91.60
45012;DHT22;63444;48.148;11.542;2024-02-26T14:50:51;12.50;92.20
45012;DHT22;63444;48.148;11.542;2024-02-26T14:53:18;12.50;92.70
45012;DHT22;63444;48.148;11.542;2024-02-26T14:55:43;12.40;93.10
45012;DHT22;63444;48.148;11.542;2024-02-26T14:58:09;12.40;93.30
45012;DHT22;63444;48.148;11.542;2024-02-26T15:00:40;12.40;93.70
45012;DHT22;63444;48.148;11.542;2024-02-26T15:03:06;12.40;94.10
45012;DHT22;63444;48.148;11.542;2024-02-26T15:05:32;12.30;94.30
45012;DHT22;63444;48.148;11.542;2024-02-26T15:07:58;12.30;94.70
45012;DHT22;63444;48.148;11.542;2024-02-26T15:10:24;12.20;94.40
45012;DHT22;63444;48.148;11.542;2024-02-26T15:12:50;12.20;94.40
45012;DHT22;63444;48.148;11.542;2024-02-26T15:15:22;12.10;94.20
45012;DHT22;63444;48.148;11.542;2024-02-26T15:17:48;12.00;94.10
45012;DHT22;63444;48.148;11.542;2024-02-26T15:20:17;12.00;94.20
45012;DHT22;63444;48.148;11.542;2024-02-26T15:22:43;12.00;94.30
45012;DHT22;63444;48.148;11.542;2024-02-26T15:25:09;12.00;94.40